sensor_id;sensor_type;location;lat;lon;timestamp;P1;durP1;ratioP1;P2;durP2;ratioP2
66212;SDS011;53015;50.046;8.238;2024-03-23T00:54:15;21.27;;;10.18;;
66212;SDS011;53015;50.046;8.238;2024-03-23T00:56:41;18.77;;;10.98;;
66212;SDS011;53015;50.046;8.238;2024-03-23T00:59:07;16.67;;;10.57;;
66212;SDS011;53015;50.046;8.238;2024-03-23T01:01:32;18.50;;;10.13;;
66212;SDS011;53015;50.046;8.238;2024-03-23T01:03:58;19.58;;;11.60;;
66212;SDS011;53015;50.046;8.238;2024-03-23T01:06:24;20.27;;;11.15;;
66212;SDS011;53015;50.046;8.238;2024-03-23T01:08:50;16.10;;;9.73;;
66212;SDS011;53015;50.046;8.238;2024-03-23T01:11:17;19.60;;;10.82;;
66212;SDS011;53015;50.046;8.238;2024-03-23T01:13:43;20.65;;;10.55;;
66212;SDS011;53015;50.046;8.238;2024-03-23T01:16:08;19.60;;;10.05;;
66212;SDS011;53015;50.046;8.238;2024-03-23T01:18:34;20.13;;;11.20;;
66212;SDS011;53015;50.046;8.238;2024-03-23T01:20:59;23.42;;;11.23;;
66212;SDS011;53015;50.046;8.238;2024-03-23T01:23:25;18.88;;;10.77;;
66212;SDS011;53015;50.046;8.238;2024-03-23T01:25:54;20.10;;;10.73;;
66212;SDS011;53015;50.046;8.238;2024-03-23T01:28:24;18.27;;;10.25;;
66212;SDS011;53015;50.046;8.238;2024-03-23T01:30:50;22.60;;;11.60;;
66212;SDS011;53015;50.046;8.238;2024-03-23T01:33:16;17.98;;;10.48;;
66212;SDS011;53015;50.046;8.238;2024-03-23T01:35:41;21.30;;;10.85;;
66212;SDS011;53015;50.046;8.238;2024-03-23T01:38:07;18.63;;;11.10;;
66212;SDS011;53015;50.046;8.238;2024-03-23T01:40:32;20.83;;;11.43;;
66212;SDS011;53015;50.046;8.238;2024-03-23T01:42:58;20.83;;;10.90;;
66212;SDS011;53015;50.046;8.238;2024-03-23T01:45:29;20.25;;;11.57;;
66212;SDS011;53015;50.046;8.238;2024-03-23T01:47:55;21.15;;;11.43;;
66212;SDS011;53015;50.046;8.238;2024-03-23T01:50:20;18.67;;;11.02;;
66212;SDS011;53015;50.046;8.238;2024-03-23T01:52:46;26.77;;;12.32;;
66212;SDS011;53015;50.046;8.238;2024-03-23T01:55:13;21.35;;;11.27;;
66212;SDS011;53015;50.046;8.238;2024-03-23T01:57:39;23.92;;;11.35;;
66212;SDS011;53015;50.046;8.238;2024-03-23T02:00:05;19.67;;;11.25;;
66212;SDS011;53015;50.046;8.238;2024-03-23T02:02:32;17.42;;;10.93;;
66212;SDS011;53015;50.046;8.238;2024-03-23T02:04:58;23.15;;;10.88;;
66212;SDS011;53015;50.046;8.238;2024-03-23T02:07:23;17.23;;;9.75;;
66212;SDS011;53015;50.046;8.238;2024-03-23T02:09:49;20.02;;;10.90;;
66212;SDS011;53015;50.046;8.238;2024-03-23T02:12:15;17.45;;;10.63;;
66212;SDS011;53015;50.046;8.238;2024-03-23T02:14:42;15.32;;;9.57;;
66212;SDS011;53015;50.046;8.238;2024-03-23T02:17:07;18.38;;;10.30;;
66212;SDS011;53015;50.046;8.238;2024-03-23T02:19:35;17.13;;;10.75;;
66212;SDS011;53015;50.046;8.238;2024-03-23T02:22:01;18.08;;;10.68;;
66212;SDS011;53015;50.046;8.238;2024-03-23T02:24:30;18.70;;;10.27;;
66212;SDS011;53015;50.046;8.238;2024-03-23T02:26:55;41.90;;;18.00;;
66212;SDS011;53015;50.046;8.238;2024-03-23T02:29:21;40.05;;;16.83;;
66212;SDS011;53015;50.046;8.238;2024-03-23T02:31:46;37.72;;;15.00;;
66212;SDS011;53015;50.046;8.238;2024-03-23T02:34:12;23.20;;;10.85;;
66212;SDS011;53015;50.046;8.238;2024-03-23T02:36:37;18.45;;;11.57;;
66212;SDS011;53015;50.046;8.238;2024-03-23T02:39:03;16.52;;;9.25;;
66212;SDS011;53015;50.046;8.238;2024-03-23T02:41:30;20.13;;;10.13;;
66212;SDS011;53015;50.046;8.238;2024-03-23T02:43:56;15.90;;;8.93;;
66212;SDS011;53015;50.046;8.238;2024-03-23T02:46:22;19.10;;;9.75;;
66212;SDS011;53015;50.046;8.238;2024-03-23T02:48:48;17.45;;;10.25;;
66212;SDS011;53015;50.046;8.238;2024-03-23T02:51:14;17.17;;;9.52;;
66212;SDS011;53015;50.046;8.238;2024-03-23T02:53:39;17.90;;;10.23;;
66212;SDS011;53015;50.046;8.238;2024-03-23T02:56:06;15.50;;;8.88;;
66212;SDS011;53015;50.046;8.238;2024-03-23T02:58:34;16.10;;;8.35;;
66212;SDS011;53015;50.046;8.238;2024-03-23T03:00:59;13.73;;;9.00;;
66212;SDS011;53015;50.046;8.238;2024-03-23T03:03:25;12.98;;;7.68;;
66212;SDS011;53015;50.046;8.238;2024-03-23T03:05:54;13.70;;;8.43;;
66212;SDS011;53015;50.046;8.238;2024-03-23T03:08:20;13.75;;;8.43;;
66212;SDS011;53015;50.046;8.238;2024-03-23T03:10:46;13.30;;;8.57;;
66212;SDS011;53015;50.046;8.238;2024-03-23T03:13:11;15.40;;;9.38;;
66212;SDS011;53015;50.046;8.238;2024-03-23T03:15:39;13.77;;;8.25;;
66212;SDS011;53015;50.046;8.238;2024-03-23T03:18:05;15.20;;;8.98;;
66212;SDS011;53015;50.046;8.238;2024-03-23T03:20:30;16.73;;;8.65;;
66212;SDS011;53015;50.046;8.238;2024-03-23T03:22:56;14.75;;;8.48;;
66212;SDS011;53015;50.046;8.238;2024-03-23T03:25:21;14.95;;;8.32;;
66212;SDS011;53015;50.046;8.238;2024-03-23T03:27:47;14.00;;;8.15;;
66212;SDS011;53015;50.046;8.238;2024-03-23T03:30:13;14.00;;;8.07;;
66212;SDS011;53015;50.046;8.238;2024-03-23T03:32:40;13.32;;;7.97;;
66212;SDS011;53015;50.046;8.238;2024-03-23T03:35:06;15.93;;;9.15;;
66212;SDS011;53015;50.046;8.238;2024-03-23T03:37:32;15.60;;;9.35;;
66212;SDS011;53015;50.046;8.238;2024-03-23T03:39:57;19.80;;;8.98;;
66212;SDS011;53015;50.046;8.238;2024-03-23T03:42:23;16.45;;;10.30;;
66212;SDS011;53015;50.046;8.238;2024-03-23T03:44:49;18.48;;;10.10;;
66212;SDS011;53015;50.046;8.238;2024-03-23T03:47:15;17.88;;;9.65;;
66212;SDS011;53015;50.046;8.238;2024-03-23T03:49:42;19.13;;;9.35;;
66212;SDS011;53015;50.046;8.238;2024-03-23T03:52:07;16.17;;;8.93;;
66212;SDS011;53015;50.046;8.238;2024-03-23T03:54:33;12.55;;;7.32;;
66212;SDS011;53015;50.046;8.238;2024-03-23T03:56:58;4.82;;;3.20;;
66212;SDS011;53015;50.046;8.238;2024-03-23T03:59:24;2.67;;;2.10;;
66212;SDS011;53015;50.046;8.238;2024-03-23T04:01:51;1.77;;;1.50;;
66212;SDS011;53015;50.046;8.238;2024-03-23T04:04:17;1.88;;;1.10;;
66212;SDS011;53015;50.046;8.238;2024-03-23T04:06:44;1.75;;;1.17;;
66212;SDS011;53015;50.046;8.238;2024-03-23T04:09:10;2.97;;;1.38;;
66212;SDS011;53015;50.046;8.238;2024-03-23T04:11:35;2.85;;;1.23;;
66212;SDS011;53015;50.046;8.238;2024-03-23T04:14:01;4.20;;;1.75;;
66212;SDS011;53015;50.046;8.238;2024-03-23T04:16:27;7.75;;;3.20;;
66212;SDS011;53015;50.046;8.238;2024-03-23T04:18:53;4.03;;;2.10;;
66212;SDS011;53015;50.046;8.238;2024-03-23T04:21:18;2.65;;;1.38;;
66212;SDS011;53015;50.046;8.238;2024-03-23T04:23:45;3.88;;;0.80;;
66212;SDS011;53015;50.046;8.238;2024-03-23T04:26:11;0.65;;;0.65;;
66212;SDS011;53015;50.046;8.238;2024-03-23T04:28:36;0.63;;;0.50;;
66212;SDS011;53015;50.046;8.238;2024-03-23T04:31:03;0.52;;;0.50;;
66212;SDS011;53015;50.046;8.238;2024-03-23T04:33:29;1.42;;;0.52;;
66212;SDS011;53015;50.046;8.238;2024-03-23T04:35:54;0.60;;;0.47;;
66212;SDS011;53015;50.046;8.238;2024-03-23T04:38:20;0.43;;;0.40;;
66212;SDS011;53015;50.046;8.238;2024-03-23T04:40:54;0.52;;;0.30;;
66212;SDS011;53015;50.046;8.238;2024-03-23T04:43:20;0.85;;;0.50;;
66212;SDS011;53015;50.046;8.238;2024-03-23T04:45:46;0.40;;;0.40;;
66212;SDS011;53015;50.046;8.238;2024-03-23T04:48:11;0.60;;;0.50;;
66212;SDS011;53015;50.046;8.238;2024-03-23T04:50:37;0.38;;;0.38;;
66212;SDS011;53015;50.046;8.238;2024-03-23T04:53:02;0.30;;;0.30;;
66212;SDS011;53015;50.046;8.238;2024-03-23T04:55:28;0.63;;;0.50;;
66212;SDS011;53015;50.046;8.238;2024-03-23T04:57:55;1.23;;;0.50;;
66212;SDS011;53015;50.046;8.238;2024-03-23T05:00:21;1.17;;;0.50;;
66212;SDS011;53015;50.046;8.238;2024-03-23T05:02:47;0.50;;;0.50;;
66212;SDS011;53015;50.046;8.238;2024-03-23T05:05:13;0.98;;;0.60;;
66212;SDS011;53015;50.046;8.238;2024-03-23T05:07:39;0.60;;;0.60;;
66212;SDS011;53015;50.046;8.238;2024-03-23T05:10:05;1.10;;;0.73;;
66212;SDS011;53015;50.046;8.238;2024-03-23T05:12:31;0.95;;;0.50;;
66212;SDS011;53015;50.046;8.238;2024-03-23T05:14:58;1.13;;;0.80;;
66212;SDS011;53015;50.046;8.238;2024-03-23T05:17:23;0.80;;;0.80;;
66212;SDS011;53015;50.046;8.238;2024-03-23T05:19:50;0.70;;;0.70;;
66212;SDS011;53015;50.046;8.238;2024-03-23T05:22:16;1.00;;;0.90;;
66212;SDS011;53015;50.046;8.238;2024-03-23T05:24:41;1.33;;;0.90;;
66212;SDS011;53015;50.046;8.238;2024-03-23T05:27:07;1.30;;;0.93;;
66212;SDS011;53015;50.046;8.238;2024-03-23T05:29:32;2.15;;;0.80;;
66212;SDS011;53015;50.046;8.238;2024-03-23T05:31:59;0.80;;;0.80;;
66212;SDS011;53015;50.046;8.238;2024-03-23T05:34:25;0.88;;;0.60;;
66212;SDS011;53015;50.046;8.238;2024-03-23T05:36:50;0.63;;;0.63;;
66212;SDS011;53015;50.046;8.238;2024-03-23T05:39:16;0.38;;;0.38;;
66212;SDS011;53015;50.046;8.238;2024-03-23T05:41:42;0.50;;;0.50;;
66212;SDS011;53015;50.046;8.238;2024-03-23T05:44:08;0.80;;;0.70;;
66212;SDS011;53015;50.046;8.238;2024-03-23T05:46:33;0.63;;;0.50;;
66212;SDS011;53015;50.046;8.238;2024-03-23T05:49:01;0.85;;;0.70;;
66212;SDS011;53015;50.046;8.238;2024-03-23T05:51:27;0.60;;;0.40;;
66212;SDS011;53015;50.046;8.238;2024-03-23T05:53:52;0.82;;;0.50;;
66212;SDS011;53015;50.046;8.238;2024-03-23T05:56:19;0.55;;;0.50;;
66212;SDS011;53015;50.046;8.238;2024-03-23T05:58:46;0.47;;;0.40;;
66212;SDS011;53015;50.046;8.238;2024-03-23T06:01:13;0.50;;;0.40;;
66212;SDS011;53015;50.046;8.238;2024-03-23T06:03:38;0.40;;;0.40;;
66212;SDS011;53015;50.046;8.238;2024-03-23T06:06:08;0.45;;;0.40;;
66212;SDS011;53015;50.046;8.238;2024-03-23T06:08:34;0.50;;;0.30;;
66212;SDS011;53015;50.046;8.238;2024-03-23T06:11:00;0.47;;;0.38;;
66212;SDS011;53015;50.046;8.238;2024-03-23T06:13:26;0.70;;;0.50;;
66212;SDS011;53015;50.046;8.238;2024-03-23T06:15:51;0.90;;;0.50;;
66212;SDS011;53015;50.046;8.238;2024-03-23T06:18:17;0.30;;;0.30;;
66212;SDS011;53015;50.046;8.238;2024-03-23T06:20:42;0.45;;;0.40;;
66212;SDS011;53015;50.046;8.238;2024-03-23T06:23:09;0.90;;;0.20;;
66212;SDS011;53015;50.046;8.238;2024-03-23T06:25:34;0.43;;;0.22;;
66212;SDS011;53015;50.046;8.238;2024-03-23T06:28:00;0.22;;;0.22;;
66212;SDS011;53015;50.046;8.238;2024-03-23T06:30:26;0.30;;;0.30;;
66212;SDS011;53015;50.046;8.238;2024-03-23T06:32:52;1.02;;;0.50;;
66212;SDS011;53015;50.046;8.238;2024-03-23T06:35:17;0.85;;;0.40;;
66212;SDS011;53015;50.046;8.238;2024-03-23T06:37:42;0.47;;;0.35;;
66212;SDS011;53015;50.046;8.238;2024-03-23T06:40:10;1.10;;;0.40;;
66212;SDS011;53015;50.046;8.238;2024-03-23T06:42:36;1.33;;;0.70;;
66212;SDS011;53015;50.046;8.238;2024-03-23T06:45:03;0.82;;;0.50;;
66212;SDS011;53015;50.046;8.238;2024-03-23T06:47:29;2.75;;;0.52;;
66212;SDS011;53015;50.046;8.238;2024-03-23T06:49:56;2.83;;;0.75;;
66212;SDS011;53015;50.046;8.238;2024-03-23T06:52:22;0.63;;;0.50;;
66212;SDS011;53015;50.046;8.238;2024-03-23T06:54:47;1.92;;;0.60;;
66212;SDS011;53015;50.046;8.238;2024-03-23T06:57:14;2.55;;;0.52;;
66212;SDS011;53015;50.046;8.238;2024-03-23T06:59:40;2.65;;;1.00;;
66212;SDS011;53015;50.046;8.238;2024-03-23T07:02:05;2.95;;;0.68;;
66212;SDS011;53015;50.046;8.238;2024-03-23T07:04:31;1.42;;;0.60;;
66212;SDS011;53015;50.046;8.238;2024-03-23T07:06:56;1.83;;;0.70;;
66212;SDS011;53015;50.046;8.238;2024-03-23T07:09:23;3.65;;;1.00;;
66212;SDS011;53015;50.046;8.238;2024-03-23T07:11:49;2.95;;;1.00;;
66212;SDS011;53015;50.046;8.238;2024-03-23T07:14:16;2.67;;;0.90;;
66212;SDS011;53015;50.046;8.238;2024-03-23T07:16:42;5.32;;;1.20;;
66212;SDS011;53015;50.046;8.238;2024-03-23T07:19:07;1.60;;;0.85;;
66212;SDS011;53015;50.046;8.238;2024-03-23T07:21:33;2.75;;;0.93;;
66212;SDS011;53015;50.046;8.238;2024-03-23T07:23:59;3.30;;;0.90;;
66212;SDS011;53015;50.046;8.238;2024-03-23T07:26:24;4.90;;;1.63;;
66212;SDS011;53015;50.046;8.238;2024-03-23T07:28:50;4.00;;;1.50;;
66212;SDS011;53015;50.046;8.238;2024-03-23T07:31:17;5.10;;;1.85;;
66212;SDS011;53015;50.046;8.238;2024-03-23T07:33:43;5.32;;;1.60;;
66212;SDS011;53015;50.046;8.238;2024-03-23T07:36:11;3.85;;;1.10;;
66212;SDS011;53015;50.046;8.238;2024-03-23T07:38:36;3.90;;;1.50;;
66212;SDS011;53015;50.046;8.238;2024-03-23T07:41:02;6.35;;;1.77;;
66212;SDS011;53015;50.046;8.238;2024-03-23T07:43:29;7.88;;;1.73;;
66212;SDS011;53015;50.046;8.238;2024-03-23T07:45:55;3.40;;;1.83;;
66212;SDS011;53015;50.046;8.238;2024-03-23T07:48:22;5.80;;;2.20;;
66212;SDS011;53015;50.046;8.238;2024-03-23T07:50:55;3.05;;;1.65;;
66212;SDS011;53015;50.046;8.238;2024-03-23T07:53:25;3.85;;;1.88;;
66212;SDS011;53015;50.046;8.238;2024-03-23T07:55:54;4.35;;;1.90;;
66212;SDS011;53015;50.046;8.238;2024-03-23T07:58:22;3.65;;;1.75;;
66212;SDS011;53015;50.046;8.238;2024-03-23T08:00:48;4.25;;;1.67;;
66212;SDS011;53015;50.046;8.238;2024-03-23T08:03:13;4.45;;;1.80;;
66212;SDS011;53015;50.046;8.238;2024-03-23T08:05:40;3.83;;;1.75;;
66212;SDS011;53015;50.046;8.238;2024-03-23T08:08:06;4.80;;;1.83;;
66212;SDS011;53015;50.046;8.238;2024-03-23T08:10:31;3.15;;;1.92;;
66212;SDS011;53015;50.046;8.238;2024-03-23T08:12:57;4.25;;;1.88;;
66212;SDS011;53015;50.046;8.238;2024-03-23T08:15:22;8.15;;;2.00;;
66212;SDS011;53015;50.046;8.238;2024-03-23T08:17:48;4.78;;;1.70;;
66212;SDS011;53015;50.046;8.238;2024-03-23T08:20:14;8.20;;;2.05;;
66212;SDS011;53015;50.046;8.238;2024-03-23T08:22:41;9.02;;;2.10;;
66212;SDS011;53015;50.046;8.238;2024-03-23T08:25:07;7.32;;;1.80;;
66212;SDS011;53015;50.046;8.238;2024-03-23T08:27:33;6.55;;;1.90;;
66212;SDS011;53015;50.046;8.238;2024-03-23T08:29:59;4.55;;;1.50;;
66212;SDS011;53015;50.046;8.238;2024-03-23T08:32:24;7.32;;;1.95;;
66212;SDS011;53015;50.046;8.238;2024-03-23T08:34:50;7.00;;;2.20;;
66212;SDS011;53015;50.046;8.238;2024-03-23T08:37:15;7.75;;;1.90;;
66212;SDS011;53015;50.046;8.238;2024-03-23T08:39:43;6.40;;;2.03;;
66212;SDS011;53015;50.046;8.238;2024-03-23T08:42:08;9.75;;;2.03;;
66212;SDS011;53015;50.046;8.238;2024-03-23T08:44:34;6.22;;;2.10;;
66212;SDS011;53015;50.046;8.238;2024-03-23T08:47:00;9.68;;;2.10;;
66212;SDS011;53015;50.046;8.238;2024-03-23T08:49:26;8.55;;;2.00;;
66212;SDS011;53015;50.046;8.238;2024-03-23T08:51:52;8.75;;;2.20;;
66212;SDS011;53015;50.046;8.238;2024-03-23T08:54:18;5.80;;;2.00;;
66212;SDS011;53015;50.046;8.238;2024-03-23T08:56:45;6.15;;;1.75;;
66212;SDS011;53015;50.046;8.238;2024-03-23T08:59:10;7.90;;;2.13;;
66212;SDS011;53015;50.046;8.238;2024-03-23T09:01:36;7.18;;;2.08;;
66212;SDS011;53015;50.046;8.238;2024-03-23T09:04:01;10.52;;;3.10;;
66212;SDS011;53015;50.046;8.238;2024-03-23T09:06:27;5.45;;;1.75;;
66212;SDS011;53015;50.046;8.238;2024-03-23T09:08:52;9.27;;;2.00;;
66212;SDS011;53015;50.046;8.238;2024-03-23T09:11:18;11.38;;;2.40;;
66212;SDS011;53015;50.046;8.238;2024-03-23T09:13:45;6.32;;;1.73;;
66212;SDS011;53015;50.046;8.238;2024-03-23T09:16:11;6.03;;;1.80;;
66212;SDS011;53015;50.046;8.238;2024-03-23T09:18:38;6.68;;;1.50;;
66212;SDS011;53015;50.046;8.238;2024-03-23T09:21:04;8.25;;;1.85;;
66212;SDS011;53015;50.046;8.238;2024-03-23T09:23:36;6.33;;;1.63;;
66212;SDS011;53015;50.046;8.238;2024-03-23T09:26:02;8.55;;;1.58;;
66212;SDS011;53015;50.046;8.238;2024-03-23T09:28:28;8.23;;;1.42;;
66212;SDS011;53015;50.046;8.238;2024-03-23T09:30:55;6.60;;;1.67;;
66212;SDS011;53015;50.046;8.238;2024-03-23T09:33:20;6.53;;;1.63;;
66212;SDS011;53015;50.046;8.238;2024-03-23T09:35:46;8.93;;;1.35;;
66212;SDS011;53015;50.046;8.238;2024-03-23T09:38:11;5.88;;;1.27;;
66212;SDS011;53015;50.046;8.238;2024-03-23T09:40:40;3.30;;;0.80;;
66212;SDS011;53015;50.046;8.238;2024-03-23T09:43:06;6.60;;;1.23;;
66212;SDS011;53015;50.046;8.238;2024-03-23T09:45:32;8.50;;;1.35;;
66212;SDS011;53015;50.046;8.238;2024-03-23T09:48:02;4.38;;;0.95;;
66212;SDS011;53015;50.046;8.238;2024-03-23T09:50:29;4.55;;;1.10;;
66212;SDS011;53015;50.046;8.238;2024-03-23T09:52:54;5.03;;;0.80;;
66212;SDS011;53015;50.046;8.238;2024-03-23T09:55:20;4.68;;;0.93;;
66212;SDS011;53015;50.046;8.238;2024-03-23T09:57:45;4.40;;;1.23;;
66212;SDS011;53015;50.046;8.238;2024-03-23T10:00:11;4.18;;;1.20;;
66212;SDS011;53015;50.046;8.238;2024-03-23T10:02:38;3.42;;;1.00;;
66212;SDS011;53015;50.046;8.238;2024-03-23T10:05:05;3.72;;;0.90;;
66212;SDS011;53015;50.046;8.238;2024-03-23T10:07:45;6.70;;;1.30;;
66212;SDS011;53015;50.046;8.238;2024-03-23T10:10:11;3.60;;;1.00;;
66212;SDS011;53015;50.046;8.238;2024-03-23T10:12:39;4.13;;;1.05;;
66212;SDS011;53015;50.046;8.238;2024-03-23T10:15:10;5.93;;;1.35;;
66212;SDS011;53015;50.046;8.238;2024-03-23T10:17:42;3.88;;;1.02;;
66212;SDS011;53015;50.046;8.238;2024-03-23T10:20:10;4.22;;;1.40;;
66212;SDS011;53015;50.046;8.238;2024-03-23T10:22:36;4.85;;;1.00;;
66212;SDS011;53015;50.046;8.238;2024-03-23T10:25:07;5.25;;;1.10;;
66212;SDS011;53015;50.046;8.238;2024-03-23T10:27:33;2.97;;;0.85;;
66212;SDS011;53015;50.046;8.238;2024-03-23T10:30:07;3.90;;;0.80;;
66212;SDS011;53015;50.046;8.238;2024-03-23T10:32:33;7.68;;;1.00;;
66212;SDS011;53015;50.046;8.238;2024-03-23T10:37:42;3.47;;;0.80;;
66212;SDS011;53015;50.046;8.238;2024-03-23T10:40:08;5.72;;;0.88;;
66212;SDS011;53015;50.046;8.238;2024-03-23T10:42:36;4.15;;;0.90;;
66212;SDS011;53015;50.046;8.238;2024-03-23T10:45:03;3.85;;;0.82;;
66212;SDS011;53015;50.046;8.238;2024-03-23T10:47:30;3.70;;;0.85;;
66212;SDS011;53015;50.046;8.238;2024-03-23T10:49:56;4.25;;;1.00;;
66212;SDS011;53015;50.046;8.238;2024-03-23T10:52:23;3.10;;;1.00;;
66212;SDS011;53015;50.046;8.238;2024-03-23T10:54:49;3.65;;;0.95;;
66212;SDS011;53015;50.046;8.238;2024-03-23T10:57:17;7.18;;;1.27;;
66212;SDS011;53015;50.046;8.238;2024-03-23T10:59:46;2.55;;;1.10;;
66212;SDS011;53015;50.046;8.238;2024-03-23T11:02:18;6.25;;;1.40;;
66212;SDS011;53015;50.046;8.238;2024-03-23T11:04:44;3.13;;;1.05;;
66212;SDS011;53015;50.046;8.238;2024-03-23T11:09:57;3.67;;;1.10;;
66212;SDS011;53015;50.046;8.238;2024-03-23T11:12:27;4.90;;;1.20;;
66212;SDS011;53015;50.046;8.238;2024-03-23T11:14:56;4.93;;;1.10;;
66212;SDS011;53015;50.046;8.238;2024-03-23T11:17:24;5.60;;;1.33;;
66212;SDS011;53015;50.046;8.238;2024-03-23T11:19:55;2.75;;;1.10;;
66212;SDS011;53015;50.046;8.238;2024-03-23T11:22:39;2.70;;;1.00;;
66212;SDS011;53015;50.046;8.238;2024-03-23T11:25:15;3.72;;;1.40;;
66212;SDS011;53015;50.046;8.238;2024-03-23T11:30:14;3.15;;;1.02;;
66212;SDS011;53015;50.046;8.238;2024-03-23T11:32:41;4.35;;;1.42;;
66212;SDS011;53015;50.046;8.238;2024-03-23T11:35:08;8.00;;;1.50;;
66212;SDS011;53015;50.046;8.238;2024-03-23T11:37:33;4.80;;;1.60;;
66212;SDS011;53015;50.046;8.238;2024-03-23T11:40:00;4.25;;;1.50;;
66212;SDS011;53015;50.046;8.238;2024-03-23T11:42:26;4.53;;;1.60;;
66212;SDS011;53015;50.046;8.238;2024-03-23T11:44:51;7.50;;;1.75;;
66212;SDS011;53015;50.046;8.238;2024-03-23T11:47:17;6.03;;;1.60;;
66212;SDS011;53015;50.046;8.238;2024-03-23T11:49:42;7.00;;;1.70;;
66212;SDS011;53015;50.046;8.238;2024-03-23T11:52:08;11.07;;;2.05;;
66212;SDS011;53015;50.046;8.238;2024-03-23T11:54:35;5.07;;;1.63;;
66212;SDS011;53015;50.046;8.238;2024-03-23T11:57:02;6.75;;;1.92;;
66212;SDS011;53015;50.046;8.238;2024-03-23T11:59:30;6.93;;;1.73;;
66212;SDS011;53015;50.046;8.238;2024-03-23T12:01:57;6.78;;;1.92;;
66212;SDS011;53015;50.046;8.238;2024-03-23T12:04:25;3.10;;;1.50;;
66212;SDS011;53015;50.046;8.238;2024-03-23T12:06:51;7.88;;;1.80;;
66212;SDS011;53015;50.046;8.238;2024-03-23T12:09:16;9.35;;;1.90;;
66212;SDS011;53015;50.046;8.238;2024-03-23T12:11:42;7.65;;;1.90;;
66212;SDS011;53015;50.046;8.238;2024-03-23T12:14:09;8.98;;;1.95;;
66212;SDS011;53015;50.046;8.238;2024-03-23T12:16:34;4.90;;;1.77;;
66212;SDS011;53015;50.046;8.238;2024-03-23T12:19:04;4.82;;;1.65;;
66212;SDS011;53015;50.046;8.238;2024-03-23T12:21:30;6.05;;;1.45;;
66212;SDS011;53015;50.046;8.238;2024-03-23T12:23:56;4.25;;;1.58;;
66212;SDS011;53015;50.046;8.238;2024-03-23T12:26:21;6.93;;;1.60;;
66212;SDS011;53015;50.046;8.238;2024-03-23T12:28:47;4.60;;;1.42;;
66212;SDS011;53015;50.046;8.238;2024-03-23T12:31:14;2.88;;;1.00;;
66212;SDS011;53015;50.046;8.238;2024-03-23T12:33:39;7.97;;;1.50;;
66212;SDS011;53015;50.046;8.238;2024-03-23T12:36:05;5.30;;;1.35;;
66212;SDS011;53015;50.046;8.238;2024-03-23T12:38:31;3.28;;;1.02;;
66212;SDS011;53015;50.046;8.238;2024-03-23T12:40:56;2.80;;;1.08;;
66212;SDS011;53015;50.046;8.238;2024-03-23T12:43:23;4.20;;;1.13;;
66212;SDS011;53015;50.046;8.238;2024-03-23T12:45:49;2.15;;;0.32;;
66212;SDS011;53015;50.046;8.238;2024-03-23T12:48:16;3.40;;;0.80;;
66212;SDS011;53015;50.046;8.238;2024-03-23T12:50:42;3.15;;;0.55;;
66212;SDS011;53015;50.046;8.238;2024-03-23T12:53:07;2.47;;;0.80;;
66212;SDS011;53015;50.046;8.238;2024-03-23T12:55:34;5.25;;;0.88;;
66212;SDS011;53015;50.046;8.238;2024-03-23T12:58:00;0.80;;;0.52;;
66212;SDS011;53015;50.046;8.238;2024-03-23T13:00:25;0.75;;;0.32;;
66212;SDS011;53015;50.046;8.238;2024-03-23T13:02:51;1.38;;;0.40;;
66212;SDS011;53015;50.046;8.238;2024-03-23T13:05:18;2.15;;;0.93;;
66212;SDS011;53015;50.046;8.238;2024-03-23T13:07:44;0.47;;;0.43;;
66212;SDS011;53015;50.046;8.238;2024-03-23T13:10:10;1.30;;;0.20;;
66212;SDS011;53015;50.046;8.238;2024-03-23T13:12:35;1.77;;;0.52;;
66212;SDS011;53015;50.046;8.238;2024-03-23T13:15:00;1.40;;;0.75;;
66212;SDS011;53015;50.046;8.238;2024-03-23T13:17:26;0.77;;;0.30;;
66212;SDS011;53015;50.046;8.238;2024-03-23T13:19:52;0.98;;;0.38;;
66212;SDS011;53015;50.046;8.238;2024-03-23T13:22:19;3.88;;;0.30;;
66212;SDS011;53015;50.046;8.238;2024-03-23T13:24:44;0.93;;;0.50;;
66212;SDS011;53015;50.046;8.238;2024-03-23T13:27:10;0.98;;;0.30;;
66212;SDS011;53015;50.046;8.238;2024-03-23T13:29:36;1.48;;;0.30;;
66212;SDS011;53015;50.046;8.238;2024-03-23T13:32:02;1.08;;;0.73;;
66212;SDS011;53015;50.046;8.238;2024-03-23T13:34:28;0.93;;;0.30;;
66212;SDS011;53015;50.046;8.238;2024-03-23T13:36:54;2.33;;;0.32;;
66212;SDS011;53015;50.046;8.238;2024-03-23T13:39:21;0.45;;;0.25;;
66212;SDS011;53015;50.046;8.238;2024-03-23T13:41:46;2.72;;;0.43;;
66212;SDS011;53015;50.046;8.238;2024-03-23T13:44:12;1.25;;;0.32;;
66212;SDS011;53015;50.046;8.238;2024-03-23T13:46:38;3.97;;;0.30;;
66212;SDS011;53015;50.046;8.238;2024-03-23T13:49:04;1.80;;;0.40;;
66212;SDS011;53015;50.046;8.238;2024-03-23T13:51:30;1.83;;;0.47;;
66212;SDS011;53015;50.046;8.238;2024-03-23T13:53:55;1.90;;;0.38;;
66212;SDS011;53015;50.046;8.238;2024-03-23T13:56:23;0.98;;;0.30;;
66212;SDS011;53015;50.046;8.238;2024-03-23T13:58:48;0.40;;;0.20;;
66212;SDS011;53015;50.046;8.238;2024-03-23T14:01:14;1.05;;;0.30;;
66212;SDS011;53015;50.046;8.238;2024-03-23T14:03:40;0.82;;;0.30;;
66212;SDS011;53015;50.046;8.238;2024-03-23T14:06:07;3.15;;;0.45;;
66212;SDS011;53015;50.046;8.238;2024-03-23T14:08:32;0.85;;;0.22;;
66212;SDS011;53015;50.046;8.238;2024-03-23T14:10:58;2.13;;;0.68;;
66212;SDS011;53015;50.046;8.238;2024-03-23T14:13:25;1.20;;;0.30;;
66212;SDS011;53015;50.046;8.238;2024-03-23T14:15:52;2.13;;;0.25;;
66212;SDS011;53015;50.046;8.238;2024-03-23T14:18:18;2.15;;;0.88;;
66212;SDS011;53015;50.046;8.238;2024-03-23T14:20:43;1.35;;;0.50;;
66212;SDS011;53015;50.046;8.238;2024-03-23T14:23:09;1.40;;;0.40;;
66212;SDS011;53015;50.046;8.238;2024-03-23T14:25:34;2.70;;;0.50;;
66212;SDS011;53015;50.046;8.238;2024-03-23T14:28:00;1.23;;;0.30;;
66212;SDS011;53015;50.046;8.238;2024-03-23T14:30:27;1.23;;;0.50;;
66212;SDS011;53015;50.046;8.238;2024-03-23T14:32:53;3.30;;;0.57;;
66212;SDS011;53015;50.046;8.238;2024-03-23T14:35:20;1.02;;;0.40;;
66212;SDS011;53015;50.046;8.238;2024-03-23T14:37:45;1.48;;;0.40;;
66212;SDS011;53015;50.046;8.238;2024-03-23T14:40:11;1.90;;;0.40;;
66212;SDS011;53015;50.046;8.238;2024-03-23T14:42:37;2.78;;;0.50;;
66212;SDS011;53015;50.046;8.238;2024-03-23T14:45:02;1.23;;;0.70;;
66212;SDS011;53015;50.046;8.238;2024-03-23T14:47:30;7.97;;;0.52;;
66212;SDS011;53015;50.046;8.238;2024-03-23T14:49:55;1.65;;;0.43;;
66212;SDS011;53015;50.046;8.238;2024-03-23T14:52:21;1.95;;;0.30;;
66212;SDS011;53015;50.046;8.238;2024-03-23T14:54:46;1.88;;;0.35;;
66212;SDS011;53015;50.046;8.238;2024-03-23T14:57:12;2.50;;;0.47;;
66212;SDS011;53015;50.046;8.238;2024-03-23T14:59:37;1.80;;;0.43;;
66212;SDS011;53015;50.046;8.238;2024-03-23T15:02:04;1.17;;;0.47;;
66212;SDS011;53015;50.046;8.238;2024-03-23T15:04:31;1.70;;;0.28;;
66212;SDS011;53015;50.046;8.238;2024-03-23T15:06:57;3.70;;;0.88;;
66212;SDS011;53015;50.046;8.238;2024-03-23T15:09:24;2.33;;;0.40;;
66212;SDS011;53015;50.046;8.238;2024-03-23T15:11:50;0.88;;;0.38;;
66212;SDS011;53015;50.046;8.238;2024-03-23T15:14:15;1.65;;;0.35;;
66212;SDS011;53015;50.046;8.238;2024-03-23T15:16:41;2.72;;;0.40;;
66212;SDS011;53015;50.046;8.238;2024-03-23T15:19:06;1.02;;;0.30;;
66212;SDS011;53015;50.046;8.238;2024-03-23T15:21:33;2.03;;;0.30;;
66212;SDS011;53015;50.046;8.238;2024-03-23T15:23:59;1.48;;;0.30;;
66212;SDS011;53015;50.046;8.238;2024-03-23T15:26:24;2.38;;;0.47;;
66212;SDS011;53015;50.046;8.238;2024-03-23T15:28:49;2.42;;;0.30;;
66212;SDS011;53015;50.046;8.238;2024-03-23T15:31:15;0.82;;;0.50;;
66212;SDS011;53015;50.046;8.238;2024-03-23T15:33:41;1.17;;;0.30;;
66212;SDS011;53015;50.046;8.238;2024-03-23T15:36:07;2.72;;;0.50;;
66212;SDS011;53015;50.046;8.238;2024-03-23T15:38:34;1.65;;;0.47;;